createdAt,value
2023-01-31T00:00:29.507Z,5.57
2023-01-31T00:02:57.070Z,6.80
2023-01-31T00:05:24.616Z,5.10
2023-01-31T00:07:52.918Z,5.60
2023-01-31T00:10:20.506Z,4.87
2023-01-31T00:12:48.028Z,4.70
2023-01-31T00:15:15.558Z,4.10
2023-01-31T00:17:44.206Z,4.10
2023-01-31T00:20:11.951Z,4.23
2023-01-31T00:22:39.491Z,5.27
2023-01-31T00:25:07.050Z,4.90
2023-01-31T00:27:34.891Z,5.20
2023-01-31T00:30:02.113Z,4.67
2023-01-31T00:32:29.674Z,5.43
2023-01-31T00:34:57.241Z,5.07
2023-01-31T00:37:24.757Z,5.73
2023-01-31T00:39:52.320Z,4.30
2023-01-31T00:42:19.860Z,5.60
2023-01-31T00:44:47.378Z,4.40
2023-01-31T00:47:15.296Z,4.57
2023-01-31T00:49:42.843Z,5.97
2023-01-31T00:52:11.177Z,5.50
2023-01-31T00:54:38.708Z,4.33
2023-01-31T00:57:06.259Z,4.77
2023-01-31T00:59:34.215Z,5.40
2023-01-31T01:02:01.390Z,5.20
2023-01-31T01:04:29.654Z,5.80
2023-01-31T01:06:57.176Z,5.27
2023-01-31T01:09:25.509Z,4.10
2023-01-31T01:11:53.038Z,4.60
2023-01-31T01:14:20.569Z,4.60
2023-01-31T01:16:48.896Z,4.47
2023-01-31T01:19:16.430Z,4.23
2023-01-31T01:21:43.946Z,5.00
2023-01-31T01:24:14.465Z,4.17
2023-01-31T01:26:42.061Z,4.77
2023-01-31T01:29:09.533Z,5.67
2023-01-31T01:31:37.157Z,6.63
2023-01-31T01:34:04.639Z,9.50
2023-01-31T01:36:32.962Z,8.53
2023-01-31T01:39:00.535Z,7.50
2023-01-31T01:41:28.628Z,5.83
2023-01-31T01:43:55.599Z,6.95
2023-01-31T01:46:41.806Z,6.10
2023-01-31T01:49:20.993Z,11.53
2023-01-31T01:51:48.548Z,11.13
2023-01-31T01:54:16.086Z,16.02
2023-01-31T01:56:43.612Z,10.97
2023-01-31T01:59:26.494Z,6.13
2023-01-31T02:01:54.027Z,4.67
2023-01-31T02:04:21.547Z,6.15
2023-01-31T02:06:49.085Z,5.07
2023-01-31T02:09:19.828Z,5.17
2023-01-31T02:11:47.342Z,5.03
2023-01-31T02:14:15.487Z,4.67
2023-01-31T02:16:43.029Z,4.37
2023-01-31T02:19:19.028Z,4.37
2023-01-31T02:21:55.320Z,4.63
2023-01-31T02:24:26.317Z,5.63
2023-01-31T02:27:06.242Z,5.40
2023-01-31T02:29:55.117Z,4.40
2023-01-31T02:32:28.382Z,4.47
2023-01-31T02:35:10.926Z,4.70
2023-01-31T02:38:02.709Z,3.73
2023-01-31T02:40:48.907Z,4.63
2023-01-31T02:43:38.887Z,4.13
2023-01-31T02:46:09.133Z,4.17
2023-01-31T02:48:39.275Z,4.20
2023-01-31T02:51:25.453Z,4.30
2023-01-31T02:56:33.205Z,3.63
2023-01-31T02:59:02.932Z,5.97
2023-01-31T03:01:30.517Z,6.32
2023-01-31T03:04:00.717Z,4.43
2023-01-31T03:06:29.009Z,4.30
2023-01-31T03:09:02.328Z,4.13
2023-01-31T03:11:32.749Z,4.17
2023-01-31T03:14:12.219Z,4.10
2023-01-31T03:17:19.236Z,3.57
2023-01-31T03:19:47.535Z,6.62
2023-01-31T03:22:15.069Z,5.33
2023-01-31T03:24:42.612Z,5.17
2023-01-31T03:27:10.178Z,5.50
2023-01-31T03:29:37.703Z,7.60
2023-01-31T03:32:05.316Z,7.93
2023-01-31T03:34:32.802Z,6.07
2023-01-31T03:37:27.732Z,5.33
2023-01-31T03:40:01.014Z,5.23
2023-01-31T03:42:56.126Z,6.20
2023-01-31T03:45:35.980Z,6.43
2023-01-31T03:48:03.159Z,6.20
2023-01-31T03:50:31.458Z,6.50
2023-01-31T03:53:02.420Z,6.23
2023-01-31T03:55:35.953Z,6.40
2023-01-31T03:58:03.264Z,6.17
2023-01-31T04:00:30.903Z,6.03
2023-01-31T04:03:10.378Z,6.77
2023-01-31T04:05:37.909Z,8.90
2023-01-31T04:08:06.203Z,7.47
2023-01-31T04:10:33.799Z,7.17
2023-01-31T04:13:01.279Z,7.03
2023-01-31T04:15:28.822Z,6.43
2023-01-31T04:17:56.425Z,6.33
2023-01-31T04:20:24.707Z,6.57
2023-01-31T04:22:52.238Z,6.40
2023-01-31T04:25:20.955Z,6.67
2023-01-31T04:27:48.118Z,7.50
2023-01-31T04:30:15.649Z,7.23
2023-01-31T04:32:43.231Z,7.03
2023-01-31T04:35:10.766Z,6.53
2023-01-31T04:37:39.118Z,6.80
2023-01-31T04:40:06.978Z,8.27
2023-01-31T04:42:34.510Z,8.40
2023-01-31T04:45:02.030Z,8.63
2023-01-31T04:47:29.596Z,7.97
2023-01-31T04:49:57.131Z,8.70
2023-01-31T04:52:25.655Z,8.30
2023-01-31T04:54:53.764Z,7.73
2023-01-31T04:57:21.283Z,7.97
2023-01-31T04:59:48.829Z,7.90
2023-01-31T05:02:16.386Z,8.57
2023-01-31T05:04:43.921Z,7.73
2023-01-31T05:07:12.233Z,7.90
2023-01-31T05:09:39.797Z,8.97
2023-01-31T05:12:07.419Z,9.43
2023-01-31T05:14:36.245Z,8.57
2023-01-31T05:17:04.538Z,7.93
2023-01-31T05:19:31.636Z,7.90
2023-01-31T05:21:59.940Z,8.27
2023-01-31T05:24:27.506Z,8.30
2023-01-31T05:26:55.033Z,9.37
2023-01-31T05:29:23.343Z,8.87
2023-01-31T05:31:53.840Z,8.80
2023-01-31T05:34:22.129Z,10.43
2023-01-31T05:36:49.653Z,9.27
2023-01-31T05:39:17.568Z,8.83
2023-01-31T05:41:45.099Z,8.67
2023-01-31T05:44:13.437Z,9.13
2023-01-31T05:46:41.574Z,9.23
2023-01-31T05:49:09.090Z,9.57
2023-01-31T05:51:37.385Z,8.87
2023-01-31T05:54:06.614Z,9.27
2023-01-31T05:56:34.071Z,8.80
2023-01-31T05:59:02.675Z,9.60
2023-01-31T06:01:30.204Z,8.70
2023-01-31T06:03:57.716Z,8.33
2023-01-31T06:06:25.235Z,8.43
2023-01-31T06:08:52.805Z,8.40
2023-01-31T06:11:20.334Z,7.80
2023-01-31T06:13:47.880Z,7.63
2023-01-31T06:16:15.555Z,8.43
2023-01-31T06:18:42.997Z,8.80
2023-01-31T06:21:11.303Z,8.73
2023-01-31T06:23:38.899Z,9.83
2023-01-31T06:26:06.427Z,8.83
2023-01-31T06:28:33.934Z,8.60
2023-01-31T06:31:02.029Z,10.00
2023-01-31T06:33:43.532Z,13.40
2023-01-31T06:35:57.765Z,10.87
2023-01-31T06:38:25.352Z,10.03
2023-01-31T06:40:52.884Z,9.13
2023-01-31T06:43:20.403Z,8.63
2023-01-31T06:45:48.346Z,10.27
2023-01-31T06:48:15.876Z,9.37
2023-01-31T06:50:43.404Z,9.77
2023-01-31T06:53:11.745Z,10.13
2023-01-31T06:55:40.019Z,10.97
2023-01-31T06:58:07.545Z,9.73
2023-01-31T07:00:35.110Z,12.00
2023-01-31T07:03:02.681Z,8.47
2023-01-31T07:05:30.564Z,8.50
2023-01-31T07:07:57.783Z,8.40
2023-01-31T07:10:25.319Z,8.37
2023-01-31T07:12:53.616Z,7.80
2023-01-31T07:15:21.488Z,8.13
2023-01-31T07:17:48.735Z,7.80
2023-01-31T07:20:16.281Z,8.07
2023-01-31T07:22:44.703Z,7.33
2023-01-31T07:25:12.259Z,7.57
2023-01-31T07:27:39.795Z,7.77
2023-01-31T07:30:07.516Z,8.07
2023-01-31T07:32:35.820Z,7.33
2023-01-31T07:35:03.344Z,7.60
2023-01-31T07:37:32.225Z,7.83
2023-01-31T07:39:59.351Z,6.83
2023-01-31T07:42:26.929Z,10.10
2023-01-31T07:44:54.520Z,7.37
2023-01-31T07:47:22.821Z,7.37
2023-01-31T07:49:50.343Z,6.80
2023-01-31T07:52:17.908Z,7.00
2023-01-31T07:54:46.202Z,9.27
2023-01-31T07:57:14.497Z,7.97
2023-01-31T07:59:42.075Z,9.65
2023-01-31T08:04:49.961Z,6.67
2023-01-31T08:07:20.131Z,8.85
2023-01-31T08:09:47.586Z,7.17
2023-01-31T08:12:15.160Z,5.87
2023-01-31T08:14:42.692Z,6.93
2023-01-31T08:17:10.223Z,8.35
2023-01-31T08:19:37.823Z,6.17
2023-01-31T08:22:05.344Z,6.37
2023-01-31T08:24:32.860Z,6.33
2023-01-31T08:27:00.433Z,6.37
2023-01-31T08:29:29.424Z,5.87
2023-01-31T08:31:56.373Z,5.23
2023-01-31T08:34:23.863Z,5.90
2023-01-31T08:36:51.431Z,5.83
2023-01-31T08:39:19.694Z,6.17
2023-01-31T08:41:47.263Z,5.57
2023-01-31T08:44:14.787Z,5.53
2023-01-31T08:46:43.178Z,5.63
2023-01-31T08:49:10.665Z,5.13
2023-01-31T08:51:38.197Z,5.60
2023-01-31T08:54:05.728Z,5.83
2023-01-31T08:56:33.882Z,5.70
2023-01-31T08:59:01.598Z,5.30
2023-01-31T09:01:29.384Z,5.40
2023-01-31T09:03:57.518Z,4.83
2023-01-31T09:06:25.020Z,5.33
2023-01-31T09:08:52.542Z,5.13
2023-01-31T09:11:20.115Z,5.00
2023-01-31T09:13:47.644Z,5.60
2023-01-31T09:16:15.947Z,5.70
2023-01-31T09:18:43.514Z,5.60
2023-01-31T09:21:11.083Z,5.93
2023-01-31T09:23:41.798Z,5.97
2023-01-31T09:26:06.196Z,5.03
2023-01-31T09:28:33.744Z,5.80
2023-01-31T09:31:05.051Z,5.70
2023-01-31T09:33:32.555Z,5.93
2023-01-31T09:36:00.083Z,5.77
2023-01-31T09:38:28.658Z,5.43
2023-01-31T09:40:55.982Z,6.27
2023-01-31T09:43:23.530Z,6.03
2023-01-31T09:45:51.056Z,7.80
2023-01-31T09:48:18.626Z,6.87
2023-01-31T09:50:51.916Z,6.13
2023-01-31T09:53:19.430Z,6.53
2023-01-31T09:56:05.158Z,6.10
2023-01-31T09:58:51.063Z,6.60
2023-01-31T10:01:30.918Z,6.40
2023-01-31T10:04:16.500Z,7.37
2023-01-31T10:06:55.614Z,7.20
2023-01-31T10:09:32.077Z,6.83
2023-01-31T10:12:14.969Z,8.10
2023-01-31T10:14:48.497Z,7.37
2023-01-31T10:17:24.890Z,8.07
2023-01-31T10:19:56.003Z,7.37
2023-01-31T10:22:29.196Z,7.33
2023-01-31T10:24:56.694Z,7.60
2023-01-31T10:27:36.585Z,6.93
2023-01-31T10:30:03.740Z,9.73
2023-01-31T10:32:39.919Z,7.83
2023-01-31T10:35:22.550Z,7.53
2023-01-31T10:37:50.093Z,8.07
2023-01-31T10:40:23.582Z,7.97
2023-01-31T10:42:53.506Z,7.17
2023-01-31T10:45:21.300Z,8.20
2023-01-31T10:47:51.265Z,8.43
2023-01-31T10:50:19.957Z,7.20
2023-01-31T10:53:18.167Z,7.70
2023-01-31T10:55:54.364Z,8.17
2023-01-31T10:58:21.890Z,7.67
2023-01-31T11:00:49.498Z,8.20
2023-01-31T11:03:17.026Z,8.30
2023-01-31T11:05:50.027Z,8.07
2023-01-31T11:08:29.155Z,7.97
2023-01-31T11:10:56.695Z,8.13
2023-01-31T11:13:24.240Z,7.30
2023-01-31T11:15:51.792Z,7.87
2023-01-31T11:18:37.697Z,8.53
2023-01-31T11:21:05.293Z,7.60
2023-01-31T11:23:33.583Z,10.27
2023-01-31T11:26:01.121Z,8.07
2023-01-31T11:28:41.230Z,8.33
2023-01-31T11:31:08.816Z,8.13
2023-01-31T11:33:42.007Z,8.47
2023-01-31T11:36:12.307Z,8.33
2023-01-31T11:38:39.854Z,9.07
2023-01-31T11:41:28.618Z,8.33
2023-01-31T11:44:11.446Z,8.80
2023-01-31T11:46:41.668Z,9.23
2023-01-31T11:49:24.582Z,8.13
2023-01-31T11:51:52.147Z,9.43
2023-01-31T11:54:19.710Z,8.67
2023-01-31T11:56:47.296Z,9.33
2023-01-31T11:59:14.818Z,12.35
2023-01-31T12:01:47.995Z,10.80
2023-01-31T12:04:18.024Z,9.57
2023-01-31T12:06:45.533Z,9.93
2023-01-31T12:09:22.736Z,13.15
2023-01-31T12:11:53.048Z,11.93
2023-01-31T12:14:21.368Z,10.43
2023-01-31T12:16:48.968Z,10.63
2023-01-31T12:19:34.487Z,10.77
2023-01-31T12:22:20.603Z,10.47
2023-01-31T12:25:06.221Z,10.47
2023-01-31T12:27:36.817Z,9.90
2023-01-31T12:30:22.369Z,12.90
2023-01-31T12:33:02.010Z,11.50
2023-01-31T12:35:41.529Z,13.07
2023-01-31T12:38:37.243Z,11.63
2023-01-31T12:41:11.323Z,10.83
2023-01-31T12:44:03.232Z,10.43
2023-01-31T12:46:54.803Z,10.30
2023-01-31T12:49:28.644Z,10.33
2023-01-31T12:52:02.291Z,9.83
2023-01-31T12:54:29.817Z,9.90
2023-01-31T12:57:12.241Z,10.70
2023-01-31T12:59:39.781Z,12.00
2023-01-31T13:02:19.012Z,14.18
2023-01-31T13:04:50.288Z,12.20
2023-01-31T13:07:20.497Z,11.37
2023-01-31T13:09:48.848Z,15.93
2023-01-31T13:12:16.471Z,13.63
2023-01-31T13:14:44.135Z,11.07
2023-01-31T13:17:11.636Z,11.43
2023-01-31T13:19:41.793Z,13.70
2023-01-31T13:22:09.325Z,10.77
2023-01-31T13:24:42.843Z,13.35
2023-01-31T13:27:19.329Z,10.40
2023-01-31T13:29:52.402Z,10.60
2023-01-31T13:32:19.921Z,8.90
2023-01-31T13:34:53.209Z,10.77
2023-01-31T13:37:23.249Z,9.47
2023-01-31T13:39:50.791Z,8.27
2023-01-31T13:42:18.351Z,7.83
2023-01-31T13:44:45.894Z,7.63
2023-01-31T13:47:16.192Z,7.43
2023-01-31T13:49:56.300Z,7.97
2023-01-31T13:52:23.822Z,6.90
2023-01-31T13:54:52.134Z,6.33
2023-01-31T13:57:25.921Z,6.70
2023-01-31T13:59:56.364Z,7.07
2023-01-31T14:02:23.898Z,7.80
2023-01-31T14:04:52.229Z,7.27
2023-01-31T14:07:19.842Z,7.13
2023-01-31T14:09:50.521Z,7.87
2023-01-31T14:12:18.116Z,20.53
2023-01-31T14:14:49.171Z,27.33
2023-01-31T14:17:29.594Z,12.47
2023-01-31T14:20:15.485Z,8.50
2023-01-31T14:22:43.099Z,5.73
2023-01-31T14:25:11.380Z,5.53
2023-01-31T14:27:42.299Z,5.80
2023-01-31T14:30:19.620Z,6.27
2023-01-31T14:33:11.324Z,8.27
2023-01-31T14:35:50.806Z,5.73
2023-01-31T14:38:18.355Z,5.60
2023-01-31T14:41:04.136Z,6.15
2023-01-31T14:43:49.398Z,5.00
2023-01-31T14:46:28.583Z,4.87
2023-01-31T14:49:27.229Z,5.83
2023-01-31T14:51:54.773Z,4.90
2023-01-31T14:54:37.037Z,4.87
2023-01-31T14:57:14.907Z,3.90
2023-01-31T14:59:42.333Z,4.00
2023-01-31T15:02:18.629Z,4.75
2023-01-31T15:04:47.065Z,3.70
2023-01-31T15:07:16.105Z,5.03
2023-01-31T15:09:43.686Z,5.20
2023-01-31T15:12:48.870Z,9.60
2023-01-31T15:15:24.963Z,5.57
2023-01-31T15:17:52.481Z,5.13
2023-01-31T15:20:22.681Z,5.50
2023-01-31T15:22:50.268Z,5.50
2023-01-31T15:25:35.957Z,6.30
2023-01-31T15:28:03.609Z,5.27
2023-01-31T15:30:31.122Z,5.93
2023-01-31T15:33:01.342Z,5.37
2023-01-31T15:35:38.009Z,5.07
2023-01-31T15:38:42.488Z,5.00
2023-01-31T15:41:34.483Z,4.17
2023-01-31T15:44:11.806Z,5.47
2023-01-31T15:46:40.118Z,4.20
2023-01-31T15:49:39.135Z,5.60
2023-01-31T15:52:09.203Z,5.70
2023-01-31T15:54:36.752Z,5.63
2023-01-31T15:57:05.021Z,4.97
2023-01-31T15:59:32.610Z,5.23
2023-01-31T16:02:02.980Z,5.27
2023-01-31T16:04:31.204Z,4.53
2023-01-31T16:06:58.799Z,5.00
2023-01-31T16:09:26.312Z,5.33
2023-01-31T16:11:53.852Z,6.20
2023-01-31T16:14:21.427Z,5.17
2023-01-31T16:16:48.994Z,6.70
2023-01-31T16:19:16.646Z,6.33
2023-01-31T16:21:44.235Z,8.83
2023-01-31T16:24:11.817Z,9.77
2023-01-31T16:26:39.446Z,7.57
2023-01-31T16:29:06.994Z,7.70
2023-01-31T16:31:34.705Z,5.23
2023-01-31T16:34:02.789Z,5.63
2023-01-31T16:36:34.603Z,4.93
2023-01-31T16:39:02.141Z,5.73
2023-01-31T16:41:41.497Z,5.57
2023-01-31T16:44:09.035Z,6.10
2023-01-31T16:46:36.665Z,7.27
2023-01-31T16:49:04.171Z,5.83
2023-01-31T16:51:35.688Z,6.00
2023-01-31T16:54:20.672Z,9.10
2023-01-31T16:57:02.894Z,10.82
2023-01-31T16:59:38.794Z,9.53
2023-01-31T17:02:15.126Z,5.63
2023-01-31T17:04:42.713Z,6.47
2023-01-31T17:07:17.131Z,5.53
2023-01-31T17:09:44.662Z,5.53
2023-01-31T17:12:12.224Z,6.73
2023-01-31T17:14:39.818Z,6.20
2023-01-31T17:17:15.946Z,7.97
2023-01-31T17:19:34.918Z,9.02
2023-01-31T17:22:02.454Z,9.13
2023-01-31T17:24:29.986Z,9.67
2023-01-31T17:26:58.174Z,7.78
2023-01-31T17:29:25.638Z,7.07
2023-01-31T17:31:53.787Z,7.10
2023-01-31T17:34:21.354Z,7.50
2023-01-31T17:36:48.912Z,7.07
2023-01-31T17:39:16.436Z,6.57
2023-01-31T17:41:44.821Z,7.40
2023-01-31T17:44:16.110Z,6.30
2023-01-31T17:46:43.695Z,6.67
2023-01-31T17:49:12.126Z,7.97
2023-01-31T17:51:39.802Z,6.63
2023-01-31T17:54:07.970Z,8.13
2023-01-31T17:56:35.559Z,7.10
2023-01-31T17:59:03.107Z,9.53
2023-01-31T18:01:30.675Z,8.75
2023-01-31T18:03:58.243Z,8.68
2023-01-31T18:06:25.772Z,7.67
2023-01-31T18:08:53.311Z,9.00
2023-01-31T18:11:20.888Z,6.70
2023-01-31T18:13:48.462Z,6.20
2023-01-31T18:16:16.063Z,5.87
2023-01-31T18:18:46.378Z,6.40
2023-01-31T18:21:13.911Z,6.37
2023-01-31T18:23:41.540Z,7.65
2023-01-31T18:26:09.152Z,7.30
2023-01-31T18:28:36.674Z,7.70
2023-01-31T18:31:04.299Z,7.17
2023-01-31T18:33:32.037Z,7.30
2023-01-31T18:35:59.562Z,7.37
2023-01-31T18:38:27.093Z,7.70
2023-01-31T18:40:54.664Z,7.53
2023-01-31T18:43:22.258Z,8.30
2023-01-31T18:45:49.744Z,8.63
2023-01-31T18:48:18.070Z,8.27
2023-01-31T18:50:45.626Z,7.40
2023-01-31T18:53:13.131Z,7.03
2023-01-31T18:55:41.487Z,9.00
2023-01-31T18:58:09.039Z,7.63
2023-01-31T19:00:36.609Z,12.07
2023-01-31T19:03:04.161Z,8.40
2023-01-31T19:05:31.690Z,6.83
2023-01-31T19:07:59.223Z,7.80
2023-01-31T19:10:27.579Z,10.53
2023-01-31T19:12:55.086Z,7.33
2023-01-31T19:15:23.764Z,7.07
2023-01-31T19:17:51.038Z,8.00
2023-01-31T19:20:18.623Z,6.23
2023-01-31T19:22:46.146Z,5.30
2023-01-31T19:25:13.705Z,8.70
2023-01-31T19:27:42.225Z,5.27
2023-01-31T19:30:09.963Z,4.10
2023-01-31T19:32:37.544Z,5.50
2023-01-31T19:35:05.062Z,4.30
2023-01-31T19:37:32.605Z,5.90
2023-01-31T19:40:00.181Z,4.33
2023-01-31T19:42:27.739Z,4.23
2023-01-31T19:44:55.260Z,4.13
2023-01-31T19:47:23.604Z,4.03
2023-01-31T19:49:51.138Z,4.80
2023-01-31T19:52:18.662Z,4.73
2023-01-31T19:54:46.999Z,5.57
2023-01-31T19:57:14.517Z,5.47
2023-01-31T19:59:42.062Z,6.00
2023-01-31T20:02:10.426Z,5.63
2023-01-31T20:04:37.998Z,6.27
2023-01-31T20:07:06.305Z,16.52
2023-01-31T20:09:33.935Z,6.70
2023-01-31T20:12:02.236Z,6.30
2023-01-31T20:14:29.770Z,7.10
2023-01-31T20:16:59.979Z,7.40
2023-01-31T20:19:27.344Z,7.17
2023-01-31T20:21:55.643Z,6.67
2023-01-31T20:24:23.249Z,6.60
2023-01-31T20:26:50.839Z,7.00
2023-01-31T20:29:18.329Z,7.53
2023-01-31T20:31:45.882Z,7.30
2023-01-31T20:34:13.426Z,7.30
2023-01-31T20:36:44.332Z,7.30
2023-01-31T20:39:16.015Z,8.50
2023-01-31T20:41:44.401Z,8.67
2023-01-31T20:44:51.059Z,7.67
2023-01-31T20:47:19.370Z,7.50
2023-01-31T20:49:46.905Z,8.17
2023-01-31T20:52:15.241Z,7.87
2023-01-31T20:54:42.790Z,9.03
2023-01-31T20:57:10.340Z,8.00
2023-01-31T20:59:37.922Z,9.20
2023-01-31T21:02:05.498Z,9.00
2023-01-31T21:04:33.002Z,12.35
2023-01-31T21:07:00.578Z,9.20
2023-01-31T21:09:28.084Z,9.70
2023-01-31T21:11:56.374Z,8.70
2023-01-31T21:14:24.225Z,9.53
2023-01-31T21:16:52.534Z,9.20
2023-01-31T21:19:20.055Z,9.23
2023-01-31T21:21:48.391Z,9.53
2023-01-31T21:24:15.947Z,9.07
2023-01-31T21:26:43.494Z,9.50
2023-01-31T21:29:11.070Z,8.73
2023-01-31T21:31:38.719Z,9.70
2023-01-31T21:34:06.147Z,8.70
2023-01-31T21:36:34.472Z,9.47
2023-01-31T21:39:02.274Z,10.63
2023-01-31T21:41:48.245Z,13.25
2023-01-31T21:44:15.779Z,14.30
2023-01-31T21:46:43.330Z,9.97
2023-01-31T21:49:11.181Z,12.63
2023-01-31T21:51:40.842Z,10.63
2023-01-31T21:54:08.361Z,11.77
2023-01-31T21:56:35.966Z,12.50
2023-01-31T21:59:03.510Z,14.05
2023-01-31T22:01:32.840Z,11.40
2023-01-31T22:04:00.441Z,13.38
2023-01-31T22:06:31.752Z,10.57
2023-01-31T22:08:59.153Z,9.90
2023-01-31T22:11:29.135Z,9.90
2023-01-31T22:13:56.714Z,10.37
2023-01-31T22:16:24.410Z,8.83
2023-01-31T22:18:52.521Z,9.20
2023-01-31T22:21:29.231Z,9.20
2023-01-31T22:23:56.778Z,12.10
2023-01-31T22:26:24.804Z,11.20
2023-01-31T22:28:52.295Z,9.70
2023-01-31T22:31:19.995Z,10.23
2023-01-31T22:33:49.587Z,10.07
2023-01-31T22:36:17.205Z,11.83
2023-01-31T22:38:45.489Z,11.00
2023-01-31T22:41:13.380Z,10.20
2023-01-31T22:43:41.490Z,10.10
2023-01-31T22:46:09.059Z,10.03
2023-01-31T22:48:36.592Z,9.70
2023-01-31T22:51:04.123Z,9.50
2023-01-31T22:53:31.670Z,9.00
2023-01-31T22:56:07.058Z,10.17
2023-01-31T22:58:34.619Z,8.70
2023-01-31T23:01:02.185Z,9.83
2023-01-31T23:03:30.127Z,9.57
2023-01-31T23:05:57.651Z,13.00
2023-01-31T23:08:25.988Z,10.97
2023-01-31T23:10:55.164Z,10.43
2023-01-31T23:13:23.113Z,10.23
2023-01-31T23:15:51.598Z,9.40
2023-01-31T23:18:19.914Z,10.27
2023-01-31T23:20:47.449Z,9.57
2023-01-31T23:23:15.836Z,11.93
2023-01-31T23:25:43.295Z,10.23
2023-01-31T23:28:10.861Z,9.60
2023-01-31T23:30:38.401Z,9.60
2023-01-31T23:33:07.524Z,8.83
2023-01-31T23:35:35.070Z,9.43
2023-01-31T23:38:02.841Z,11.90
2023-01-31T23:40:31.291Z,10.40
2023-01-31T23:42:58.804Z,9.47
2023-01-31T23:45:27.117Z,9.23
2023-01-31T23:47:54.693Z,10.20
2023-01-31T23:50:22.567Z,11.20
2023-01-31T23:52:49.741Z,10.80
2023-01-31T23:55:18.621Z,9.87
2023-01-31T23:57:46.147Z,10.03
